Heltonville, Indiana
Current Conditions -  °F | °C
As of 5:53 AM on Thursday 18 Dec 2014 (Local Time) from KBMG Reporting Station
Overcast Overcast  
Wind Chill: 19°   Ceiling: 1400
Heat Index: 25°   Visibility: 10mi
Dew Point: 19°   Wind: 5mph
Humidity: 78%   Direction: 120°ESE
Pressure: 30.24"   Gusts: NA
Location:  38.93°N, 86.38°W
Report Text: KBMG 181053Z AUTO 12004KT 10SM OVC014 M04/M07 A3024 RMK AO2 SLP250 T10391072
Loading
Personal Weather Stations






























Interactive Weather Map New forecast layout! Learn more

10-Day Weather Forecast

Advertisements
Track Severe Weather on mobile